sensor_id;sensor_type;location;lat;lon;timestamp;P1;durP1;ratioP1;P2;durP2;ratioP2
50337;SDS011;46221;51.178;5.900;2023-04-16T00:01:32;3.58;;;1.30;;
50337;SDS011;46221;51.178;5.900;2023-04-16T00:03:58;2.92;;;0.80;;
50337;SDS011;46221;51.178;5.900;2023-04-16T00:06:25;3.22;;;0.82;;
50337;SDS011;46221;51.178;5.900;2023-04-16T00:08:53;2.05;;;0.68;;
50337;SDS011;46221;51.178;5.900;2023-04-16T00:11:19;2.53;;;0.77;;
50337;SDS011;46221;51.178;5.900;2023-04-16T00:13:45;3.65;;;0.93;;
50337;SDS011;46221;51.178;5.900;2023-04-16T00:16:12;2.72;;;0.70;;
50337;SDS011;46221;51.178;5.900;2023-04-16T00:18:38;2.90;;;0.90;;
50337;SDS011;46221;51.178;5.900;2023-04-16T00:21:05;2.67;;;0.85;;
50337;SDS011;46221;51.178;5.900;2023-04-16T00:23:31;2.53;;;0.80;;
50337;SDS011;46221;51.178;5.900;2023-04-16T00:25:58;2.33;;;0.90;;
50337;SDS011;46221;51.178;5.900;2023-04-16T00:28:25;2.88;;;0.77;;
50337;SDS011;46221;51.178;5.900;2023-04-16T00:30:52;2.03;;;0.80;;
50337;SDS011;46221;51.178;5.900;2023-04-16T00:33:19;2.60;;;0.98;;
50337;SDS011;46221;51.178;5.900;2023-04-16T00:35:46;1.45;;;0.60;;
50337;SDS011;46221;51.178;5.900;2023-04-16T00:38:12;3.92;;;1.10;;
50337;SDS011;46221;51.178;5.900;2023-04-16T00:40:39;2.80;;;0.90;;
50337;SDS011;46221;51.178;5.900;2023-04-16T00:43:05;2.75;;;0.85;;
50337;SDS011;46221;51.178;5.900;2023-04-16T00:45:32;5.00;;;0.88;;
50337;SDS011;46221;51.178;5.900;2023-04-16T00:47:58;3.42;;;1.02;;
50337;SDS011;46221;51.178;5.900;2023-04-16T00:50:26;3.75;;;1.02;;
50337;SDS011;46221;51.178;5.900;2023-04-16T00:52:55;2.85;;;1.00;;
50337;SDS011;46221;51.178;5.900;2023-04-16T00:55:21;2.97;;;1.00;;
50337;SDS011;46221;51.178;5.900;2023-04-16T00:57:48;3.10;;;1.00;;
50337;SDS011;46221;51.178;5.900;2023-04-16T01:00:14;3.30;;;0.88;;
50337;SDS011;46221;51.178;5.900;2023-04-16T01:02:40;4.00;;;0.90;;
50337;SDS011;46221;51.178;5.900;2023-04-16T01:05:07;3.38;;;0.80;;
50337;SDS011;46221;51.178;5.900;2023-04-16T01:07:34;1.98;;;0.82;;
50337;SDS011;46221;51.178;5.900;2023-04-16T01:10:01;5.80;;;1.30;;
50337;SDS011;46221;51.178;5.900;2023-04-16T01:12:27;3.45;;;1.33;;
50337;SDS011;46221;51.178;5.900;2023-04-16T01:14:53;3.97;;;1.20;;
50337;SDS011;46221;51.178;5.900;2023-04-16T01:17:20;3.17;;;1.15;;
50337;SDS011;46221;51.178;5.900;2023-04-16T01:19:46;3.63;;;1.00;;
50337;SDS011;46221;51.178;5.900;2023-04-16T01:22:12;4.15;;;1.42;;
50337;SDS011;46221;51.178;5.900;2023-04-16T01:24:39;3.67;;;0.90;;
50337;SDS011;46221;51.178;5.900;2023-04-16T01:27:05;2.72;;;0.80;;
50337;SDS011;46221;51.178;5.900;2023-04-16T01:29:32;2.17;;;0.70;;
50337;SDS011;46221;51.178;5.900;2023-04-16T01:31:58;3.30;;;1.00;;
50337;SDS011;46221;51.178;5.900;2023-04-16T01:34:24;2.80;;;0.88;;
50337;SDS011;46221;51.178;5.900;2023-04-16T01:36:51;4.80;;;1.10;;
50337;SDS011;46221;51.178;5.900;2023-04-16T01:39:17;2.30;;;0.82;;
50337;SDS011;46221;51.178;5.900;2023-04-16T01:41:44;2.63;;;0.88;;
50337;SDS011;46221;51.178;5.900;2023-04-16T01:44:10;2.78;;;0.95;;
50337;SDS011;46221;51.178;5.900;2023-04-16T01:46:37;3.78;;;1.45;;
50337;SDS011;46221;51.178;5.900;2023-04-16T01:49:03;2.58;;;0.95;;
50337;SDS011;46221;51.178;5.900;2023-04-16T01:51:30;3.75;;;1.00;;
50337;SDS011;46221;51.178;5.900;2023-04-16T01:53:57;4.55;;;0.95;;
50337;SDS011;46221;51.178;5.900;2023-04-16T01:56:23;3.97;;;0.90;;
50337;SDS011;46221;51.178;5.900;2023-04-16T01:58:50;3.83;;;1.25;;
50337;SDS011;46221;51.178;5.900;2023-04-16T02:01:16;2.92;;;1.25;;
50337;SDS011;46221;51.178;5.900;2023-04-16T02:03:42;4.38;;;1.50;;
50337;SDS011;46221;51.178;5.900;2023-04-16T02:06:09;3.50;;;1.30;;
50337;SDS011;46221;51.178;5.900;2023-04-16T02:08:36;3.17;;;1.10;;
50337;SDS011;46221;51.178;5.900;2023-04-16T02:11:02;3.47;;;1.10;;
50337;SDS011;46221;51.178;5.900;2023-04-16T02:13:29;2.60;;;1.00;;
50337;SDS011;46221;51.178;5.900;2023-04-16T02:15:55;3.05;;;1.20;;
50337;SDS011;46221;51.178;5.900;2023-04-16T02:18:21;2.92;;;0.80;;
50337;SDS011;46221;51.178;5.900;2023-04-16T02:20:48;3.20;;;1.00;;
50337;SDS011;46221;51.178;5.900;2023-04-16T02:23:17;3.67;;;1.17;;
50337;SDS011;46221;51.178;5.900;2023-04-16T02:25:44;2.30;;;0.90;;
50337;SDS011;46221;51.178;5.900;2023-04-16T02:28:11;3.88;;;1.13;;
50337;SDS011;46221;51.178;5.900;2023-04-16T02:30:38;2.35;;;0.90;;
50337;SDS011;46221;51.178;5.900;2023-04-16T02:33:06;6.65;;;1.40;;
50337;SDS011;46221;51.178;5.900;2023-04-16T02:35:33;3.70;;;0.93;;
50337;SDS011;46221;51.178;5.900;2023-04-16T02:38:00;2.05;;;1.05;;
50337;SDS011;46221;51.178;5.900;2023-04-16T02:40:27;2.45;;;0.93;;
50337;SDS011;46221;51.178;5.900;2023-04-16T02:42:53;2.75;;;1.10;;
50337;SDS011;46221;51.178;5.900;2023-04-16T02:45:20;4.10;;;1.48;;
50337;SDS011;46221;51.178;5.900;2023-04-16T02:47:47;4.70;;;1.17;;
50337;SDS011;46221;51.178;5.900;2023-04-16T02:50:13;5.57;;;1.25;;
50337;SDS011;46221;51.178;5.900;2023-04-16T02:52:40;4.03;;;1.30;;
50337;SDS011;46221;51.178;5.900;2023-04-16T02:55:06;4.85;;;1.73;;
50337;SDS011;46221;51.178;5.900;2023-04-16T02:57:33;2.00;;;1.00;;
50337;SDS011;46221;51.178;5.900;2023-04-16T02:59:59;2.50;;;1.13;;
50337;SDS011;46221;51.178;5.900;2023-04-16T03:02:26;2.70;;;1.30;;
50337;SDS011;46221;51.178;5.900;2023-04-16T03:04:52;4.82;;;1.58;;
50337;SDS011;46221;51.178;5.900;2023-04-16T03:07:19;3.45;;;1.50;;
50337;SDS011;46221;51.178;5.900;2023-04-16T03:09:45;3.80;;;1.35;;
50337;SDS011;46221;51.178;5.900;2023-04-16T03:12:12;2.65;;;1.08;;
50337;SDS011;46221;51.178;5.900;2023-04-16T03:14:38;2.78;;;1.27;;
50337;SDS011;46221;51.178;5.900;2023-04-16T03:17:05;5.80;;;1.52;;
50337;SDS011;46221;51.178;5.900;2023-04-16T03:19:31;4.30;;;1.27;;
50337;SDS011;46221;51.178;5.900;2023-04-16T03:21:57;3.35;;;1.63;;
50337;SDS011;46221;51.178;5.900;2023-04-16T03:24:24;3.72;;;1.40;;
50337;SDS011;46221;51.178;5.900;2023-04-16T03:26:51;3.95;;;1.50;;
50337;SDS011;46221;51.178;5.900;2023-04-16T03:29:17;2.35;;;1.00;;
50337;SDS011;46221;51.178;5.900;2023-04-16T03:31:43;3.55;;;1.90;;
50337;SDS011;46221;51.178;5.900;2023-04-16T03:34:10;4.35;;;1.50;;
50337;SDS011;46221;51.178;5.900;2023-04-16T03:36:36;3.85;;;1.50;;
50337;SDS011;46221;51.178;5.900;2023-04-16T03:39:02;3.60;;;1.20;;
50337;SDS011;46221;51.178;5.900;2023-04-16T03:41:31;2.65;;;1.20;;
50337;SDS011;46221;51.178;5.900;2023-04-16T03:43:58;4.85;;;1.50;;
50337;SDS011;46221;51.178;5.900;2023-04-16T03:46:24;5.53;;;1.90;;
50337;SDS011;46221;51.178;5.900;2023-04-16T03:48:50;3.42;;;1.48;;
50337;SDS011;46221;51.178;5.900;2023-04-16T03:51:17;3.78;;;1.63;;
50337;SDS011;46221;51.178;5.900;2023-04-16T03:53:43;3.40;;;1.27;;
50337;SDS011;46221;51.178;5.900;2023-04-16T03:56:09;2.58;;;1.00;;
50337;SDS011;46221;51.178;5.900;2023-04-16T03:58:35;3.55;;;1.48;;
50337;SDS011;46221;51.178;5.900;2023-04-16T04:01:02;4.13;;;1.33;;
50337;SDS011;46221;51.178;5.900;2023-04-16T04:03:28;4.10;;;1.48;;
50337;SDS011;46221;51.178;5.900;2023-04-16T04:05:55;3.85;;;1.52;;
50337;SDS011;46221;51.178;5.900;2023-04-16T04:08:21;3.45;;;1.45;;
50337;SDS011;46221;51.178;5.900;2023-04-16T04:10:48;6.35;;;1.40;;
50337;SDS011;46221;51.178;5.900;2023-04-16T04:13:16;4.05;;;1.42;;
50337;SDS011;46221;51.178;5.900;2023-04-16T04:15:42;3.38;;;1.48;;
50337;SDS011;46221;51.178;5.900;2023-04-16T04:18:09;3.55;;;1.23;;
50337;SDS011;46221;51.178;5.900;2023-04-16T04:20:38;3.28;;;1.30;;
50337;SDS011;46221;51.178;5.900;2023-04-16T04:23:04;4.03;;;1.13;;
50337;SDS011;46221;51.178;5.900;2023-04-16T04:25:30;6.53;;;1.35;;
50337;SDS011;46221;51.178;5.900;2023-04-16T04:27:57;4.07;;;1.35;;
50337;SDS011;46221;51.178;5.900;2023-04-16T04:30:23;3.35;;;1.20;;
50337;SDS011;46221;51.178;5.900;2023-04-16T04:32:49;3.25;;;1.17;;
50337;SDS011;46221;51.178;5.900;2023-04-16T04:35:16;4.25;;;1.33;;
50337;SDS011;46221;51.178;5.900;2023-04-16T04:37:42;4.97;;;1.30;;
50337;SDS011;46221;51.178;5.900;2023-04-16T04:40:09;4.13;;;1.65;;
50337;SDS011;46221;51.178;5.900;2023-04-16T04:42:36;3.15;;;1.30;;
50337;SDS011;46221;51.178;5.900;2023-04-16T04:45:03;3.25;;;1.60;;
50337;SDS011;46221;51.178;5.900;2023-04-16T04:47:29;3.65;;;1.55;;
50337;SDS011;46221;51.178;5.900;2023-04-16T04:49:56;3.80;;;1.50;;
50337;SDS011;46221;51.178;5.900;2023-04-16T04:52:22;3.67;;;1.50;;
50337;SDS011;46221;51.178;5.900;2023-04-16T04:54:48;4.45;;;1.30;;
50337;SDS011;46221;51.178;5.900;2023-04-16T04:57:15;4.80;;;1.50;;
50337;SDS011;46221;51.178;5.900;2023-04-16T04:59:41;3.38;;;1.55;;
50337;SDS011;46221;51.178;5.900;2023-04-16T05:02:08;3.10;;;1.60;;
50337;SDS011;46221;51.178;5.900;2023-04-16T05:04:34;3.67;;;1.50;;
50337;SDS011;46221;51.178;5.900;2023-04-16T05:07:01;4.00;;;1.38;;
50337;SDS011;46221;51.178;5.900;2023-04-16T05:09:27;3.78;;;1.35;;
50337;SDS011;46221;51.178;5.900;2023-04-16T05:11:54;4.95;;;1.60;;
50337;SDS011;46221;51.178;5.900;2023-04-16T05:14:20;3.25;;;1.50;;
50337;SDS011;46221;51.178;5.900;2023-04-16T05:16:46;5.40;;;1.83;;
50337;SDS011;46221;51.178;5.900;2023-04-16T05:19:13;4.60;;;1.70;;
50337;SDS011;46221;51.178;5.900;2023-04-16T05:21:39;4.15;;;1.27;;
50337;SDS011;46221;51.178;5.900;2023-04-16T05:24:05;3.38;;;1.42;;
50337;SDS011;46221;51.178;5.900;2023-04-16T05:26:32;3.05;;;1.42;;
50337;SDS011;46221;51.178;5.900;2023-04-16T05:28:58;5.00;;;2.22;;
50337;SDS011;46221;51.178;5.900;2023-04-16T05:31:24;4.00;;;1.67;;
50337;SDS011;46221;51.178;5.900;2023-04-16T05:33:51;4.53;;;1.98;;
50337;SDS011;46221;51.178;5.900;2023-04-16T05:36:17;3.33;;;1.67;;
50337;SDS011;46221;51.178;5.900;2023-04-16T05:38:46;3.33;;;1.90;;
50337;SDS011;46221;51.178;5.900;2023-04-16T05:41:12;3.28;;;1.92;;
50337;SDS011;46221;51.178;5.900;2023-04-16T05:43:38;3.95;;;1.70;;
50337;SDS011;46221;51.178;5.900;2023-04-16T05:46:05;3.50;;;1.77;;
50337;SDS011;46221;51.178;5.900;2023-04-16T05:48:31;4.68;;;1.80;;
50337;SDS011;46221;51.178;5.900;2023-04-16T05:50:57;4.38;;;1.90;;
50337;SDS011;46221;51.178;5.900;2023-04-16T05:53:24;3.70;;;1.60;;
50337;SDS011;46221;51.178;5.900;2023-04-16T05:55:50;4.63;;;1.85;;
50337;SDS011;46221;51.178;5.900;2023-04-16T05:58:19;3.92;;;1.75;;
50337;SDS011;46221;51.178;5.900;2023-04-16T06:00:45;6.20;;;2.33;;
50337;SDS011;46221;51.178;5.900;2023-04-16T06:03:15;4.53;;;2.33;;
50337;SDS011;46221;51.178;5.900;2023-04-16T06:05:51;5.80;;;2.15;;
50337;SDS011;46221;51.178;5.900;2023-04-16T06:08:18;5.28;;;2.20;;
50337;SDS011;46221;51.178;5.900;2023-04-16T06:10:45;4.15;;;2.17;;
50337;SDS011;46221;51.178;5.900;2023-04-16T06:13:17;4.63;;;2.13;;
50337;SDS011;46221;51.178;5.900;2023-04-16T06:15:43;3.80;;;1.88;;
50337;SDS011;46221;51.178;5.900;2023-04-16T06:18:10;3.92;;;1.88;;
50337;SDS011;46221;51.178;5.900;2023-04-16T06:20:39;4.47;;;2.30;;
50337;SDS011;46221;51.178;5.900;2023-04-16T06:23:06;5.35;;;1.80;;
50337;SDS011;46221;51.178;5.900;2023-04-16T06:25:32;4.68;;;2.20;;
50337;SDS011;46221;51.178;5.900;2023-04-16T06:28:01;3.22;;;1.83;;
50337;SDS011;46221;51.178;5.900;2023-04-16T06:30:27;3.65;;;1.80;;
50337;SDS011;46221;51.178;5.900;2023-04-16T06:32:54;5.35;;;1.83;;
50337;SDS011;46221;51.178;5.900;2023-04-16T06:35:20;6.45;;;2.50;;
50337;SDS011;46221;51.178;5.900;2023-04-16T06:37:47;6.72;;;2.40;;
50337;SDS011;46221;51.178;5.900;2023-04-16T06:40:13;5.55;;;2.13;;
50337;SDS011;46221;51.178;5.900;2023-04-16T06:42:39;3.95;;;1.90;;
50337;SDS011;46221;51.178;5.900;2023-04-16T06:45:08;6.22;;;2.40;;
50337;SDS011;46221;51.178;5.900;2023-04-16T06:47:35;4.35;;;1.67;;
50337;SDS011;46221;51.178;5.900;2023-04-16T06:50:01;6.03;;;2.28;;
50337;SDS011;46221;51.178;5.900;2023-04-16T06:52:28;6.90;;;2.60;;
50337;SDS011;46221;51.178;5.900;2023-04-16T06:54:55;5.65;;;2.17;;
50337;SDS011;46221;51.178;5.900;2023-04-16T06:57:21;4.07;;;1.90;;
50337;SDS011;46221;51.178;5.900;2023-04-16T06:59:47;5.72;;;2.35;;
50337;SDS011;46221;51.178;5.900;2023-04-16T07:02:14;4.15;;;1.90;;
50337;SDS011;46221;51.178;5.900;2023-04-16T07:04:40;4.35;;;2.30;;
50337;SDS011;46221;51.178;5.900;2023-04-16T07:07:07;5.60;;;3.00;;
50337;SDS011;46221;51.178;5.900;2023-04-16T07:09:33;5.78;;;2.60;;
50337;SDS011;46221;51.178;5.900;2023-04-16T07:12:00;5.85;;;2.47;;
50337;SDS011;46221;51.178;5.900;2023-04-16T07:14:26;6.00;;;2.30;;
50337;SDS011;46221;51.178;5.900;2023-04-16T07:16:53;6.75;;;2.58;;
50337;SDS011;46221;51.178;5.900;2023-04-16T07:19:20;7.15;;;2.50;;
50337;SDS011;46221;51.178;5.900;2023-04-16T07:21:49;7.45;;;3.42;;
50337;SDS011;46221;51.178;5.900;2023-04-16T07:24:15;11.70;;;3.30;;
50337;SDS011;46221;51.178;5.900;2023-04-16T07:26:42;6.30;;;2.83;;
50337;SDS011;46221;51.178;5.900;2023-04-16T07:29:08;6.95;;;2.42;;
50337;SDS011;46221;51.178;5.900;2023-04-16T07:31:35;5.70;;;2.60;;
50337;SDS011;46221;51.178;5.900;2023-04-16T07:34:03;5.70;;;2.75;;
50337;SDS011;46221;51.178;5.900;2023-04-16T07:36:29;6.07;;;2.38;;
50337;SDS011;46221;51.178;5.900;2023-04-16T07:38:57;5.38;;;2.90;;
50337;SDS011;46221;51.178;5.900;2023-04-16T07:41:23;6.97;;;2.65;;
50337;SDS011;46221;51.178;5.900;2023-04-16T07:43:50;5.43;;;2.90;;
50337;SDS011;46221;51.178;5.900;2023-04-16T07:46:16;8.23;;;3.30;;
50337;SDS011;46221;51.178;5.900;2023-04-16T07:48:46;5.22;;;2.97;;
50337;SDS011;46221;51.178;5.900;2023-04-16T07:51:12;5.88;;;2.97;;
50337;SDS011;46221;51.178;5.900;2023-04-16T07:53:49;5.88;;;2.85;;
50337;SDS011;46221;51.178;5.900;2023-04-16T07:56:15;6.05;;;2.90;;
50337;SDS011;46221;51.178;5.900;2023-04-16T07:58:41;4.93;;;2.67;;
50337;SDS011;46221;51.178;5.900;2023-04-16T08:01:08;6.47;;;3.05;;
50337;SDS011;46221;51.178;5.900;2023-04-16T08:03:34;5.88;;;2.90;;
50337;SDS011;46221;51.178;5.900;2023-04-16T08:06:01;5.18;;;3.10;;
50337;SDS011;46221;51.178;5.900;2023-04-16T08:08:27;5.50;;;3.20;;
50337;SDS011;46221;51.178;5.900;2023-04-16T08:10:54;7.50;;;3.38;;
50337;SDS011;46221;51.178;5.900;2023-04-16T08:13:21;6.05;;;3.10;;
50337;SDS011;46221;51.178;5.900;2023-04-16T08:15:48;7.10;;;2.60;;
50337;SDS011;46221;51.178;5.900;2023-04-16T08:18:14;7.05;;;3.58;;
50337;SDS011;46221;51.178;5.900;2023-04-16T08:20:42;7.50;;;3.25;;
50337;SDS011;46221;51.178;5.900;2023-04-16T08:23:08;5.57;;;3.42;;
50337;SDS011;46221;51.178;5.900;2023-04-16T08:25:35;8.05;;;3.30;;
50337;SDS011;46221;51.178;5.900;2023-04-16T08:28:01;7.68;;;3.40;;
50337;SDS011;46221;51.178;5.900;2023-04-16T08:30:28;4.63;;;2.70;;
50337;SDS011;46221;51.178;5.900;2023-04-16T08:32:54;8.07;;;3.70;;
50337;SDS011;46221;51.178;5.900;2023-04-16T08:35:21;7.63;;;3.72;;
50337;SDS011;46221;51.178;5.900;2023-04-16T08:37:48;6.68;;;3.75;;
50337;SDS011;46221;51.178;5.900;2023-04-16T08:40:14;10.05;;;4.00;;
50337;SDS011;46221;51.178;5.900;2023-04-16T08:42:53;7.28;;;4.07;;
50337;SDS011;46221;51.178;5.900;2023-04-16T08:45:24;7.03;;;3.42;;
50337;SDS011;46221;51.178;5.900;2023-04-16T08:47:51;6.65;;;3.97;;
50337;SDS011;46221;51.178;5.900;2023-04-16T08:50:27;10.35;;;4.28;;
50337;SDS011;46221;51.178;5.900;2023-04-16T08:52:55;9.63;;;4.22;;
50337;SDS011;46221;51.178;5.900;2023-04-16T08:55:31;8.35;;;4.07;;
50337;SDS011;46221;51.178;5.900;2023-04-16T08:58:01;5.80;;;3.50;;
50337;SDS011;46221;51.178;5.900;2023-04-16T09:00:28;6.82;;;4.03;;
50337;SDS011;46221;51.178;5.900;2023-04-16T09:02:56;7.97;;;3.80;;
50337;SDS011;46221;51.178;5.900;2023-04-16T09:05:23;7.05;;;3.83;;
50337;SDS011;46221;51.178;5.900;2023-04-16T09:07:51;6.68;;;3.35;;
50337;SDS011;46221;51.178;5.900;2023-04-16T09:10:18;8.98;;;4.60;;
50337;SDS011;46221;51.178;5.900;2023-04-16T09:12:45;6.78;;;4.07;;
50337;SDS011;46221;51.178;5.900;2023-04-16T09:15:12;8.25;;;4.05;;
50337;SDS011;46221;51.178;5.900;2023-04-16T09:17:38;7.15;;;3.50;;
50337;SDS011;46221;51.178;5.900;2023-04-16T09:20:06;7.45;;;3.60;;
50337;SDS011;46221;51.178;5.900;2023-04-16T09:22:36;8.38;;;4.22;;
50337;SDS011;46221;51.178;5.900;2023-04-16T09:25:02;8.00;;;3.78;;
50337;SDS011;46221;51.178;5.900;2023-04-16T09:27:29;10.27;;;4.15;;
50337;SDS011;46221;51.178;5.900;2023-04-16T09:29:56;8.15;;;4.30;;
50337;SDS011;46221;51.178;5.900;2023-04-16T09:32:24;7.28;;;3.80;;
50337;SDS011;46221;51.178;5.900;2023-04-16T09:34:57;8.30;;;4.53;;
50337;SDS011;46221;51.178;5.900;2023-04-16T09:37:27;7.75;;;3.90;;
50337;SDS011;46221;51.178;5.900;2023-04-16T09:39:57;8.15;;;4.28;;
50337;SDS011;46221;51.178;5.900;2023-04-16T09:42:30;8.05;;;4.43;;
50337;SDS011;46221;51.178;5.900;2023-04-16T09:44:57;7.65;;;4.03;;
50337;SDS011;46221;51.178;5.900;2023-04-16T09:50:06;9.65;;;4.90;;
50337;SDS011;46221;51.178;5.900;2023-04-16T09:52:37;9.75;;;5.22;;
50337;SDS011;46221;51.178;5.900;2023-04-16T09:55:04;7.20;;;4.10;;
50337;SDS011;46221;51.178;5.900;2023-04-16T09:57:35;7.97;;;4.90;;
50337;SDS011;46221;51.178;5.900;2023-04-16T10:00:04;8.55;;;4.72;;
50337;SDS011;46221;51.178;5.900;2023-04-16T10:02:31;7.65;;;4.40;;
50337;SDS011;46221;51.178;5.900;2023-04-16T10:05:00;8.48;;;5.20;;
50337;SDS011;46221;51.178;5.900;2023-04-16T10:07:27;10.63;;;5.32;;
50337;SDS011;46221;51.178;5.900;2023-04-16T10:09:54;11.43;;;5.32;;
50337;SDS011;46221;51.178;5.900;2023-04-16T10:12:24;8.98;;;5.20;;
50337;SDS011;46221;51.178;5.900;2023-04-16T10:15:00;10.05;;;5.32;;
50337;SDS011;46221;51.178;5.900;2023-04-16T10:17:29;9.63;;;5.65;;
50337;SDS011;46221;51.178;5.900;2023-04-16T10:19:56;13.82;;;5.97;;
50337;SDS011;46221;51.178;5.900;2023-04-16T10:22:23;7.50;;;4.95;;
50337;SDS011;46221;51.178;5.900;2023-04-16T10:24:49;12.45;;;5.60;;
50337;SDS011;46221;51.178;5.900;2023-04-16T10:27:16;12.50;;;5.90;;
50337;SDS011;46221;51.178;5.900;2023-04-16T10:29:44;20.38;;;6.30;;
50337;SDS011;46221;51.178;5.900;2023-04-16T10:32:11;16.13;;;5.80;;
50337;SDS011;46221;51.178;5.900;2023-04-16T10:34:37;14.93;;;6.88;;
50337;SDS011;46221;51.178;5.900;2023-04-16T10:37:04;11.75;;;6.53;;
50337;SDS011;46221;51.178;5.900;2023-04-16T10:39:30;13.10;;;6.50;;
50337;SDS011;46221;51.178;5.900;2023-04-16T10:42:06;13.25;;;6.28;;
50337;SDS011;46221;51.178;5.900;2023-04-16T10:44:32;14.20;;;7.22;;
50337;SDS011;46221;51.178;5.900;2023-04-16T10:46:59;12.85;;;6.00;;
50337;SDS011;46221;51.178;5.900;2023-04-16T10:49:25;10.43;;;6.80;;
50337;SDS011;46221;51.178;5.900;2023-04-16T10:51:56;15.23;;;7.78;;
50337;SDS011;46221;51.178;5.900;2023-04-16T10:54:24;10.95;;;7.22;;
50337;SDS011;46221;51.178;5.900;2023-04-16T10:56:54;10.75;;;7.20;;
50337;SDS011;46221;51.178;5.900;2023-04-16T10:59:21;13.05;;;7.75;;
50337;SDS011;46221;51.178;5.900;2023-04-16T11:01:52;12.35;;;7.90;;
50337;SDS011;46221;51.178;5.900;2023-04-16T11:12:13;13.38;;;9.00;;
50337;SDS011;46221;51.178;5.900;2023-04-16T11:14:40;12.48;;;8.13;;
50337;SDS011;46221;51.178;5.900;2023-04-16T11:17:07;10.98;;;8.25;;
50337;SDS011;46221;51.178;5.900;2023-04-16T11:19:37;14.80;;;9.73;;
50337;SDS011;46221;51.178;5.900;2023-04-16T11:22:03;13.07;;;8.43;;
50337;SDS011;46221;51.178;5.900;2023-04-16T11:24:31;15.05;;;9.43;;
50337;SDS011;46221;51.178;5.900;2023-04-16T11:26:57;13.02;;;8.00;;
50337;SDS011;46221;51.178;5.900;2023-04-16T11:29:23;15.60;;;7.82;;
50337;SDS011;46221;51.178;5.900;2023-04-16T11:31:50;11.60;;;7.90;;
50337;SDS011;46221;51.178;5.900;2023-04-16T11:34:17;10.00;;;7.35;;
50337;SDS011;46221;51.178;5.900;2023-04-16T11:36:44;12.57;;;7.75;;
50337;SDS011;46221;51.178;5.900;2023-04-16T11:39:11;13.52;;;8.25;;
50337;SDS011;46221;51.178;5.900;2023-04-16T11:41:44;11.48;;;7.70;;
50337;SDS011;46221;51.178;5.900;2023-04-16T11:44:18;10.82;;;7.80;;
50337;SDS011;46221;51.178;5.900;2023-04-16T11:46:44;10.55;;;8.00;;
50337;SDS011;46221;51.178;5.900;2023-04-16T11:49:10;13.20;;;8.32;;
50337;SDS011;46221;51.178;5.900;2023-04-16T11:51:40;12.27;;;7.50;;
50337;SDS011;46221;51.178;5.900;2023-04-16T11:54:07;10.85;;;7.85;;
50337;SDS011;46221;51.178;5.900;2023-04-16T11:56:37;12.02;;;7.95;;
50337;SDS011;46221;51.178;5.900;2023-04-16T11:59:16;14.00;;;8.13;;
50337;SDS011;46221;51.178;5.900;2023-04-16T12:01:47;12.68;;;7.63;;
50337;SDS011;46221;51.178;5.900;2023-04-16T12:04:14;12.15;;;8.10;;
50337;SDS011;46221;51.178;5.900;2023-04-16T12:09:26;12.15;;;8.05;;
50337;SDS011;46221;51.178;5.900;2023-04-16T12:11:53;13.85;;;8.57;;
50337;SDS011;46221;51.178;5.900;2023-04-16T12:14:19;10.77;;;8.88;;
50337;SDS011;46221;51.178;5.900;2023-04-16T12:16:46;11.57;;;7.82;;
50337;SDS011;46221;51.178;5.900;2023-04-16T12:19:13;12.10;;;8.48;;
50337;SDS011;46221;51.178;5.900;2023-04-16T12:21:40;16.30;;;8.80;;
50337;SDS011;46221;51.178;5.900;2023-04-16T12:24:07;12.90;;;8.15;;
50337;SDS011;46221;51.178;5.900;2023-04-16T12:29:13;16.42;;;9.30;;
50337;SDS011;46221;51.178;5.900;2023-04-16T12:31:40;14.45;;;8.65;;
50337;SDS011;46221;51.178;5.900;2023-04-16T12:34:06;13.68;;;8.35;;
50337;SDS011;46221;51.178;5.900;2023-04-16T12:36:32;13.65;;;7.80;;
50337;SDS011;46221;51.178;5.900;2023-04-16T12:38:59;15.90;;;9.18;;
50337;SDS011;46221;51.178;5.900;2023-04-16T12:41:25;18.50;;;10.57;;
50337;SDS011;46221;51.178;5.900;2023-04-16T12:43:51;18.65;;;9.10;;
50337;SDS011;46221;51.178;5.900;2023-04-16T12:46:18;17.67;;;8.50;;
50337;SDS011;46221;51.178;5.900;2023-04-16T12:48:44;20.98;;;9.38;;
50337;SDS011;46221;51.178;5.900;2023-04-16T12:51:11;17.85;;;10.35;;
50337;SDS011;46221;51.178;5.900;2023-04-16T12:53:37;16.23;;;8.43;;
50337;SDS011;46221;51.178;5.900;2023-04-16T12:56:03;15.35;;;8.63;;
50337;SDS011;46221;51.178;5.900;2023-04-16T12:58:30;15.13;;;9.55;;
50337;SDS011;46221;51.178;5.900;2023-04-16T13:00:56;15.18;;;8.63;;
50337;SDS011;46221;51.178;5.900;2023-04-16T13:03:23;13.90;;;9.02;;
50337;SDS011;46221;51.178;5.900;2023-04-16T13:05:50;14.27;;;9.15;;
50337;SDS011;46221;51.178;5.900;2023-04-16T13:08:16;15.57;;;8.50;;
50337;SDS011;46221;51.178;5.900;2023-04-16T13:10:43;12.65;;;9.13;;
50337;SDS011;46221;51.178;5.900;2023-04-16T13:13:09;11.40;;;8.00;;
50337;SDS011;46221;51.178;5.900;2023-04-16T13:15:35;12.88;;;8.85;;
50337;SDS011;46221;51.178;5.900;2023-04-16T13:18:02;13.80;;;8.32;;
50337;SDS011;46221;51.178;5.900;2023-04-16T13:20:28;12.85;;;8.55;;
50337;SDS011;46221;51.178;5.900;2023-04-16T13:22:54;12.27;;;8.30;;
50337;SDS011;46221;51.178;5.900;2023-04-16T13:25:21;12.85;;;8.52;;
50337;SDS011;46221;51.178;5.900;2023-04-16T13:27:48;14.13;;;8.38;;
50337;SDS011;46221;51.178;5.900;2023-04-16T13:30:14;14.75;;;8.25;;
50337;SDS011;46221;51.178;5.900;2023-04-16T13:32:41;13.32;;;8.50;;
50337;SDS011;46221;51.178;5.900;2023-04-16T13:35:08;10.57;;;7.95;;
50337;SDS011;46221;51.178;5.900;2023-04-16T13:37:35;13.95;;;7.68;;
50337;SDS011;46221;51.178;5.900;2023-04-16T13:40:01;12.88;;;7.97;;
50337;SDS011;46221;51.178;5.900;2023-04-16T13:42:27;15.45;;;8.10;;
50337;SDS011;46221;51.178;5.900;2023-04-16T13:44:54;19.75;;;8.27;;
50337;SDS011;46221;51.178;5.900;2023-04-16T13:47:20;13.55;;;8.95;;
50337;SDS011;46221;51.178;5.900;2023-04-16T13:49:47;14.70;;;8.13;;
50337;SDS011;46221;51.178;5.900;2023-04-16T13:52:14;14.73;;;8.90;;
50337;SDS011;46221;51.178;5.900;2023-04-16T13:54:40;14.65;;;8.50;;
50337;SDS011;46221;51.178;5.900;2023-04-16T13:57:07;15.27;;;8.77;;
50337;SDS011;46221;51.178;5.900;2023-04-16T13:59:34;13.15;;;8.52;;
50337;SDS011;46221;51.178;5.900;2023-04-16T14:02:00;14.38;;;8.10;;
50337;SDS011;46221;51.178;5.900;2023-04-16T14:04:27;13.52;;;7.97;;
50337;SDS011;46221;51.178;5.900;2023-04-16T14:06:53;12.90;;;8.23;;
50337;SDS011;46221;51.178;5.900;2023-04-16T14:09:19;14.07;;;9.10;;
50337;SDS011;46221;51.178;5.900;2023-04-16T14:11:46;12.88;;;8.15;;
50337;SDS011;46221;51.178;5.900;2023-04-16T14:14:12;15.00;;;8.25;;
50337;SDS011;46221;51.178;5.900;2023-04-16T14:16:39;12.23;;;7.63;;
50337;SDS011;46221;51.178;5.900;2023-04-16T14:19:05;14.05;;;7.53;;
50337;SDS011;46221;51.178;5.900;2023-04-16T14:21:31;11.32;;;7.00;;
50337;SDS011;46221;51.178;5.900;2023-04-16T14:23:58;15.02;;;8.90;;
50337;SDS011;46221;51.178;5.900;2023-04-16T14:26:24;12.63;;;8.05;;
50337;SDS011;46221;51.178;5.900;2023-04-16T14:28:50;11.70;;;7.95;;
50337;SDS011;46221;51.178;5.900;2023-04-16T14:31:17;12.80;;;7.55;;
50337;SDS011;46221;51.178;5.900;2023-04-16T14:33:45;12.15;;;7.57;;
50337;SDS011;46221;51.178;5.900;2023-04-16T14:36:11;13.50;;;7.50;;
50337;SDS011;46221;51.178;5.900;2023-04-16T14:38:38;11.93;;;7.90;;
50337;SDS011;46221;51.178;5.900;2023-04-16T14:41:05;11.40;;;7.70;;
50337;SDS011;46221;51.178;5.900;2023-04-16T14:43:32;11.88;;;8.13;;
50337;SDS011;46221;51.178;5.900;2023-04-16T14:45:58;10.45;;;7.45;;
50337;SDS011;46221;51.178;5.900;2023-04-16T14:48:25;10.00;;;7.38;;
50337;SDS011;46221;51.178;5.900;2023-04-16T14:50:51;11.10;;;7.07;;
50337;SDS011;46221;51.178;5.900;2023-04-16T14:53:18;10.93;;;6.93;;
50337;SDS011;46221;51.178;5.900;2023-04-16T14:55:44;10.88;;;6.50;;
50337;SDS011;46221;51.178;5.900;2023-04-16T14:58:11;10.70;;;7.70;;